Latest Coastal Weather Observations for Newcastle Nobbys

IDN60701

Issued at 8:55 am EDT Friday 28 November 2014 (issued every 10 minutes, with the page automatically refreshed every 10 minutes)

About coastal observations | Map of coastal stations | Coastal observations for NSW | Marine services | Other Formats
Station Details ID: 061055 Name: NEWCASTLE NOBBYS SIGNAL STATION AWS Lat: -32.92 Lon: 151.80 Height: 33.0 m
Data from the previous 72 hours. | See also: Recent months at Newcastle Nobbys
Date/Time
EDT
Temp

°C
Wind Pressure Rain
since 9am
mm
Weather Cloud Vis
km
Sea
Height
m
Swell
Dir
 
Speed
knots
Gust
knots
hPa Trend Height
m
Period
s
Dir
28/08:30am 20.0 ESE 10 12 - - 0.0 - - - - - - -
28/08:00am 19.7 SE 12 14 - - 0.0 - - - - - - -
28/07:30am 19.7 ESE 12 14 - - 0.0 - - - - - - -
28/07:00am 19.6 ESE 11 13 - - 0.0 - - - - - - -
28/06:30am 19.4 ESE 10 13 - - 0.0 - - - - - - -
28/06:00am 19.4 SE 12 14 - - 0.0 - - - - - - -
28/05:30am 19.3 SE 12 14 - - 0.0 - - - - - - -
28/05:00am 19.2 SE 12 13 - - 0.0 - - - - - - -
28/04:30am 19.4 SE 10 12 - - 0.0 - - - - - - -
28/04:00am 19.1 SE 9 10 - - 0.0 - - - - - - -
28/03:30am 19.1 SE 10 12 - - 0.0 - - - - - - -
28/03:00am 19.1 SE 10 13 - - 0.0 - - - - - - -
28/02:30am 19.2 SSE 11 13 - - 0.0 - - - - - - -
28/02:00am 19.3 SE 12 15 - - 0.0 - - - - - - -
28/01:30am 19.1 SE 13 16 - - 0.0 - - - - - - -
28/01:00am 19.3 SE 14 16 - - 0.0 - - - - - - -
28/12:30am 19.3 SE 14 17 - - 0.0 - - - - - - -
28/12:00am 19.3 SE 13 15 - - 0.0 - - - - - - -
 
Date/Time
EDT
Temp

°C
Wind Pressure Rain
since 9am
mm
Weather Cloud Vis
km
Sea
Height
m
Swell
Dir
 
Speed
knots
Gust
knots
hPa Trend Height
m
Period
s
Dir
27/11:30pm 19.4 SE 13 15 - - 0.0 - - - - - - -
27/11:00pm 19.5 SE 13 15 - - 0.0 - - - - - - -
27/10:30pm 19.6 SE 13 15 - - 0.0 - - - - - - -
27/10:00pm 19.6 SE 14 16 - - 0.0 - - - - - - -
27/09:30pm 19.5 SE 13 16 - - 0.0 - - - - - - -
27/09:00pm 19.5 SE 14 17 - - 0.0 - - - - - - -
27/08:30pm 19.6 SE 15 17 - - 0.0 - - - - - - -
27/08:00pm 19.4 SE 15 17 - - 0.0 - - - - - - -
27/07:30pm 19.4 SE 15 17 - - 0.0 - - - - - - -
27/07:00pm 19.6 SE 16 18 - - 0.0 - - - - - - -
27/06:30pm 19.7 SE 16 19 - - 0.0 - - - - - - -
27/06:00pm 19.8 SSE 17 20 - - 0.0 - - - - - - -
27/05:30pm 20.2 SSE 17 19 - - 0.0 - - - - - - -
27/05:00pm 20.0 SSE 18 21 - - 0.0 - - - - - - -
27/04:30pm 20.5 SSE 18 21 - - 0.0 - - - - - - -
27/04:00pm 20.5 SSE 19 22 - - 0.0 - - - - - - -
27/03:30pm 21.1 SSE 16 19 - - 0.0 - - - - - - -
27/03:00pm 21.1 SSE 17 19 - - 0.0 - - - - - - -
27/02:30pm 20.9 SE 16 18 - - 0.0 - - - - - - -
27/02:00pm 21.1 SE 17 20 - - 0.0 - - - - - - -
27/01:30pm 21.1 SE 16 19 - - 0.0 - - - - - - -
27/01:00pm 20.8 SE 17 20 - - 0.0 - - - - - - -
27/12:30pm 20.7 SE 17 19 - - 0.0 - - - - - - -
27/12:00pm 20.5 SE 18 21 - - 0.0 - - - - - - -
27/11:30am 20.3 SSE 18 21 - - 0.0 - - - - - - -
27/11:00am 20.7 SSE 17 20 - - 0.0 - - - - - - -
27/10:30am 21.0 SSE 17 20 - - 0.0 - - - - - - -
27/10:00am 20.8 SSE 18 20 - - 0.0 - - - - - - -
27/09:30am 20.3 SSE 20 22 - - 0.0 - - - - - - -
27/09:00am 20.2 SSE 18 22 - - 0.4 - - - - - - -
27/08:30am 20.3 SSE 19 23 - - 0.4 - - - - - - -
27/08:00am 20.8 SSE 18 22 - - 0.4 - - - - - - -
27/07:30am 20.9 SSE 15 17 - - 0.4 - - - - - - -
27/07:00am 20.9 SSE 14 17 - - 0.4 - - - - - - -
27/06:30am 20.8 SSE 15 17 - - 0.4 - - - - - - -
27/06:00am 20.7 SSE 14 16 - - 0.4 - - - - - - -
27/05:30am 20.8 SSE 15 19 - - 0.4 - - - - - - -
27/05:00am 20.7 SSE 16 19 - - 0.4 - - - - - - -
27/04:30am 20.8 SSE 15 18 - - 0.4 - - - - - - -
27/04:00am 20.8 SE 13 14 - - 0.2 - - - - - - -
27/03:30am 21.0 SE 13 15 - - 0.0 - - - - - - -
27/03:00am 20.8 SE 13 14 - - 0.0 - - - - - - -
27/02:30am 20.7 SE 14 16 - - 0.0 - - - - - - -
27/02:00am 20.9 SE 14 16 - - 0.0 - - - - - - -
27/01:30am 21.1 SE 10 12 - - 0.0 - - - - - - -
27/01:00am 21.0 ESE 9 11 - - 0.0 - - - - - - -
27/12:30am 21.0 ESE 10 12 - - 0.0 - - - - - - -
27/12:00am 21.0 ESE 10 12 - - 0.0 - - - - - - -
 
Date/Time
EDT
Temp

°C
Wind Pressure Rain
since 9am
mm
Weather Cloud Vis
km
Sea
Height
m
Swell
Dir
 
Speed
knots
Gust
knots
hPa Trend Height
m
Period
s
Dir
26/11:30pm 21.0 E 10 11 - - 0.0 - - - - - - -
26/11:00pm 21.0 E 9 10 - - 0.0 - - - - - - -
26/10:30pm 21.1 E 7 8 - - 0.0 - - - - - - -
26/10:00pm 21.0 ENE 7 9 - - 0.0 - - - - - - -
26/09:30pm 21.0 ENE 8 10 - - 0.0 - - - - - - -
26/09:00pm 21.3 E 7 9 - - 0.0 - - - - - - -
26/08:30pm 21.4 ENE 6 9 - - 0.0 - - - - - - -
26/08:00pm 21.5 ENE 7 10 - - 0.0 - - - - - - -
26/07:30pm 21.6 ENE 11 14 - - 0.0 - - - - - - -
26/07:00pm 21.7 ENE 13 16 - - 0.0 - - - - - - -
26/06:30pm 21.9 E 15 18 - - 0.0 - - - - - - -
26/06:00pm 21.9 ENE 18 22 - - 0.0 - - - - - - -
26/05:30pm 22.0 ENE 18 22 - - 0.0 - - - - - - -
26/05:00pm 22.0 ENE 18 22 - - 0.0 - - - - - - -
26/04:30pm 21.9 E 19 22 - - 0.0 - - - - - - -
26/04:00pm 22.1 E 18 23 - - 0.0 - - - - - - -
26/03:30pm 22.3 E 19 22 - - 0.0 - - - - - - -
26/03:00pm 22.3 E 19 22 - - 0.0 - - - - - - -
26/02:30pm 22.0 E 17 21 - - 0.0 - - - - - - -
26/02:00pm 22.4 E 18 23 - - 0.0 - - - - - - -
26/01:30pm 21.7 E 16 20 - - 0.0 - - - - - - -
26/01:00pm 21.6 E 16 19 - - 0.0 - - - - - - -
26/12:30pm 22.1 E 15 18 - - 0.0 - - - - - - -
26/12:00pm 22.0 E 13 16 - - 0.0 - - - - - - -
26/11:30am 21.5 E 13 16 - - 0.0 - - - - - - -
26/11:00am 21.6 E 12 14 - - 0.0 - - - - - - -
26/10:30am 21.9 E 11 13 - - 0.0 - - - - - - -
26/10:00am 21.6 E 10 12 - - 0.0 - - - - - - -
26/09:30am 21.3 E 10 11 - - 0.0 - - - - - - -
26/09:00am 20.9 E 10 12 - - 0.2 - - - - - - -
26/08:30am 20.5 ESE 13 15 - - 0.2 - - - - - - -
26/08:00am 20.4 E 14 16 - - 0.2 - - - - - - -
26/07:30am 20.3 E 13 15 - - 0.2 - - - - - - -
26/07:00am 20.1 ESE 13 15 - - 0.2 - - - - - - -
26/06:30am 19.9 ESE 14 16 - - 0.2 - - - - - - -
26/06:00am 19.6 ESE 14 16 - - 0.2 - - - - - - -
26/05:30am 19.7 ESE 14 16 - - 0.2 - - - - - - -
26/05:00am 19.8 ESE 14 17 - - 0.2 - - - - - - -
26/04:30am 20.0 ESE 14 16 - - 0.2 - - - - - - -
26/04:00am 20.0 ESE 13 14 - - 0.2 - - - - - - -
26/03:30am 20.3 E 10 13 - - 0.2 - - - - - - -
26/03:00am 20.1 E 9 10 - - 0.2 - - - - - - -
26/02:30am 20.3 E 8 10 - - 0.2 - - - - - - -
26/02:00am 20.2 E 9 11 - - 0.2 - - - - - - -
26/01:30am 20.1 E 8 10 - - 0.2 - - - - - - -
26/01:00am 20.1 E 8 10 - - 0.2 - - - - - - -
26/12:30am 20.2 E 9 10 - - 0.2 - - - - - - -
26/12:00am 19.9 E 9 11 - - 0.2 - - - - - - -
 
Date/Time
EDT
Temp

°C
Wind Pressure Rain
since 9am
mm
Weather Cloud Vis
km
Sea
Height
m
Swell
Dir
 
Speed
knots
Gust
knots
hPa Trend Height
m
Period
s
Dir
25/11:30pm 20.1 ENE 8 10 - - 0.2 - - - - - - -
25/11:00pm 19.8 E 8 10 - - 0.2 - - - - - - -
25/10:30pm 19.9 ENE 8 11 - - 0.2 - - - - - - -
25/10:00pm 19.8 NE 8 11 - - 0.2 - - - - - - -
25/09:30pm 19.9 ENE 10 11 - - 0.2 - - - - - - -
25/09:00pm 19.8 ENE 10 12 - - 0.2 - - - - - - -
25/08:30pm 19.7 ENE 11 13 - - 0.2 - - - - - - -
25/08:00pm 19.6 E 12 16 - - 0.2 - - - - - - -
25/07:30pm 19.9 E 12 14 - - 0.2 - - - - - - -
25/07:00pm 19.9 E 12 15 - - 0.2 - - - - - - -
25/06:30pm 19.9 ESE 15 16 - - 0.2 - - - - - - -
25/06:00pm 20.3 ESE 14 16 - - 0.2 - - - - - - -
25/05:30pm 20.6 SE 13 14 - - 0.2 - - - - - - -
25/05:00pm 20.7 SE 13 15 - - 0.2 - - - - - - -
25/04:30pm 20.5 SE 14 17 - - 0.2 - - - - - - -
25/04:00pm 20.6 SSE 16 18 - - 0.2 - - - - - - -
25/03:30pm 20.6 SSE 16 19 - - 0.2 - - - - - - -
25/03:00pm 20.6 SSE 17 19 - - 0.2 - - - - - - -
25/02:30pm 20.8 SSE 18 22 - - 0.2 - - - - - - -
25/02:00pm 21.2 SSE 20 23 - - 0.2 - - - - - - -
25/01:30pm 21.5 S 21 24 - - 0.2 - - - - - - -
25/01:00pm 21.6 S 21 25 - - 0.2 - - - - - - -
25/12:30pm 22.0 S 22 27 - - 0.2 - - - - - - -
25/12:16pm 23.1 S 17 27 - - 0.2 - - - - - - -
25/12:00pm 23.9 S 15 19 - - 0.2 Recent precip. - - - - - -
25/11:30am 27.6 S 11 13 - - 0.2 - - - - - - -
25/11:00am 26.4 W 12 18 - - 0.0 - - - - - - -
25/10:30am 26.1 W 9 11 - - 0.0 - - - - - - -
25/10:00am 25.3 W 10 13 - - 0.0 - - - - - - -
25/09:30am 25.1 WNW 13 17 - - 0.0 - - - - - - -
25/09:00am 24.3 W 9 11 - - 8.6 - - - - - - -

Other Formats:

Comma delimited format used in spreadsheet applications
http://www.bom.gov.au/fwo/IDN60701/IDN60701.94774.axf

JavaScript Object Notation format (JSON) in row-major order
http://www.bom.gov.au/fwo/IDN60701/IDN60701.94774.json